This is the latest recevied weather packets stored in our database for station/object KD9ZDW. If no packets are shown the sender has not sent any weather packets the latest 10 day(s).
| Time | Temp. | Humidity | Pressure | Rain* | Wind** | Luminosity | Snow |
|---|---|---|---|---|---|---|---|
| 1777728803 | 5° C | 65% | 1021.2 hPa | 0 mm | - | 135 W/m² | - |
| 1777728500 | 4.44° C | 65% | 1021.1 hPa | 0 mm | - | 325 W/m² | - |
| 1777728197 | 4.44° C | 65% | 1021 hPa | 0 mm | - | 293 W/m² | - |
| 1777727894 | 4.44° C | 65% | 1021.1 hPa | 0 mm | - | 299 W/m² | - |
| 1777727591 | 4.44° C | 67% | 1021.1 hPa | 0 mm | - | 285 W/m² | - |
| 1777727288 | 4.44° C | 66% | 1021 hPa | 0 mm | - | 143 W/m² | - |
| 1777726986 | 3.89° C | 67% | 1021.1 hPa | 0 mm | - | 261 W/m² | - |
| 1777726683 | 4.44° C | 68% | 1021.1 hPa | 0 mm | - | 144 W/m² | - |
| 1777726380 | 3.89° C | 69% | 1020.9 hPa | 0 mm | - | 160 W/m² | - |
| 1777726076 | 3.89° C | 68% | 1020.9 hPa | 0 mm | - | 154 W/m² | - |
| 1777725773 | 3.33° C | 71% | 1020.7 hPa | 0 mm | - | 198 W/m² | - |
| 1777725472 | 3.33° C | 71% | 1020.9 hPa | 0 mm | - | 183 W/m² | - |
| 1777725169 | 3.33° C | 73% | 1020.9 hPa | 0 mm | - | 170 W/m² | - |
| 1777724865 | 3.33° C | 73% | 1020.7 hPa | 0 mm | - | 156 W/m² | - |
| 1777724561 | 2.78° C | 74% | 1020.8 hPa | 0 mm | - | 143 W/m² | - |
| 1777724260 | 2.78° C | 75% | 1020.6 hPa | 0 mm | - | 132 W/m² | - |
| 1777723957 | 2.78° C | 75% | 1020.8 hPa | 0 mm | - | 120 W/m² | - |
| 1777723653 | 2.22° C | 76% | 1020.8 hPa | 0 mm | - | 108 W/m² | - |
| 1777723350 | 2.22° C | 77% | 1020.7 hPa | 0 mm | - | 48 W/m² | - |
| 1777723048 | 2.22° C | 78% | 1021 hPa | 0 mm | - | 86 W/m² | - |
| 1777722745 | 1.67° C | 79% | 1020.8 hPa | 0 mm | - | 77 W/m² | - |
| 1777722440 | 1.67° C | 80% | 1020.7 hPa | 0 mm | - | 67 W/m² | - |
| 1777722138 | 1.67° C | 82% | 1020.8 hPa | 0 mm | - | 58 W/m² | - |
| 1777721835 | 1.11° C | 83% | 1020.8 hPa | 0 mm | - | 51 W/m² | - |
| 1777721533 | 0.56° C | 86% | 1020.7 hPa | 0 mm | - | 35 W/m² | - |
* Rain latest hour (hover to see other rain measurements)
** Current wind speed in m/s (hover to see current wind gust speed)